sensor_id;sensor_type;location;lat;lon;timestamp;temperature;humidity
62998;DHT22;55949;52.590;7.330;2023-12-22T00:00:20;4.60;99.90
62998;DHT22;55949;52.590;7.330;2023-12-22T00:01:21;4.60;99.90
62998;DHT22;55949;52.590;7.330;2023-12-22T00:02:22;4.70;99.90
62998;DHT22;55949;52.590;7.330;2023-12-22T00:03:24;4.70;99.90
62998;DHT22;55949;52.590;7.330;2023-12-22T00:04:24;4.80;99.90
62998;DHT22;55949;52.590;7.330;2023-12-22T00:05:25;4.90;99.90
62998;DHT22;55949;52.590;7.330;2023-12-22T00:06:26;4.80;99.90
62998;DHT22;55949;52.590;7.330;2023-12-22T00:07:27;4.90;99.90
62998;DHT22;55949;52.590;7.330;2023-12-22T00:08:28;4.90;99.90
62998;DHT22;55949;52.590;7.330;2023-12-22T00:09:29;5.10;99.90
62998;DHT22;55949;52.590;7.330;2023-12-22T00:10:29;5.30;99.90
62998;DHT22;55949;52.590;7.330;2023-12-22T00:11:30;5.40;99.90
62998;DHT22;55949;52.590;7.330;2023-12-22T00:12:31;5.40;99.90
62998;DHT22;55949;52.590;7.330;2023-12-22T00:13:31;5.20;99.90
62998;DHT22;55949;52.590;7.330;2023-12-22T00:14:33;5.10;99.90
62998;DHT22;55949;52.590;7.330;2023-12-22T00:15:34;5.30;99.90
62998;DHT22;55949;52.590;7.330;2023-12-22T00:16:37;5.40;99.90
62998;DHT22;55949;52.590;7.330;2023-12-22T00:17:37;5.50;99.90
62998;DHT22;55949;52.590;7.330;2023-12-22T00:18:38;5.30;99.90
62998;DHT22;55949;52.590;7.330;2023-12-22T00:19:39;5.40;99.90
62998;DHT22;55949;52.590;7.330;2023-12-22T00:20:40;5.40;99.90
62998;DHT22;55949;52.590;7.330;2023-12-22T00:21:41;5.30;99.90
62998;DHT22;55949;52.590;7.330;2023-12-22T00:22:41;5.30;99.90
62998;DHT22;55949;52.590;7.330;2023-12-22T00:23:42;5.10;99.90
62998;DHT22;55949;52.590;7.330;2023-12-22T00:24:43;4.70;99.90
62998;DHT22;55949;52.590;7.330;2023-12-22T00:25:44;4.50;99.90
62998;DHT22;55949;52.590;7.330;2023-12-22T00:26:44;4.40;99.90
62998;DHT22;55949;52.590;7.330;2023-12-22T00:27:46;4.30;99.90
62998;DHT22;55949;52.590;7.330;2023-12-22T00:28:46;4.20;99.90
62998;DHT22;55949;52.590;7.330;2023-12-22T00:29:47;4.40;99.90
62998;DHT22;55949;52.590;7.330;2023-12-22T00:30:48;4.40;99.90
62998;DHT22;55949;52.590;7.330;2023-12-22T00:31:48;4.20;99.90
62998;DHT22;55949;52.590;7.330;2023-12-22T00:32:49;4.20;99.90
62998;DHT22;55949;52.590;7.330;2023-12-22T00:33:50;4.30;99.90
62998;DHT22;55949;52.590;7.330;2023-12-22T00:34:51;4.20;99.90
62998;DHT22;55949;52.590;7.330;2023-12-22T00:35:52;4.20;99.90
62998;DHT22;55949;52.590;7.330;2023-12-22T00:36:52;4.10;99.90
62998;DHT22;55949;52.590;7.330;2023-12-22T00:37:53;4.20;99.90
62998;DHT22;55949;52.590;7.330;2023-12-22T00:38:54;4.40;99.90
62998;DHT22;55949;52.590;7.330;2023-12-22T00:39:54;4.50;99.90
62998;DHT22;55949;52.590;7.330;2023-12-22T00:40:55;4.30;99.90
62998;DHT22;55949;52.590;7.330;2023-12-22T00:41:56;4.40;99.90
62998;DHT22;55949;52.590;7.330;2023-12-22T00:42:56;4.30;99.90
62998;DHT22;55949;52.590;7.330;2023-12-22T00:43:57;4.40;99.90
62998;DHT22;55949;52.590;7.330;2023-12-22T00:44:58;4.50;99.90
62998;DHT22;55949;52.590;7.330;2023-12-22T00:45:58;4.50;99.90
62998;DHT22;55949;52.590;7.330;2023-12-22T00:46:59;4.60;99.90
62998;DHT22;55949;52.590;7.330;2023-12-22T00:48:00;4.60;99.90
62998;DHT22;55949;52.590;7.330;2023-12-22T00:49:00;4.80;99.90
62998;DHT22;55949;52.590;7.330;2023-12-22T00:50:01;4.80;99.90
62998;DHT22;55949;52.590;7.330;2023-12-22T00:51:03;4.80;99.90
62998;DHT22;55949;52.590;7.330;2023-12-22T00:52:04;4.90;99.90
62998;DHT22;55949;52.590;7.330;2023-12-22T00:53:04;4.80;99.90
62998;DHT22;55949;52.590;7.330;2023-12-22T00:54:05;4.90;99.90
62998;DHT22;55949;52.590;7.330;2023-12-22T00:55:06;4.90;99.90
62998;DHT22;55949;52.590;7.330;2023-12-22T00:56:07;5.00;99.90
62998;DHT22;55949;52.590;7.330;2023-12-22T00:57:07;5.00;99.90
62998;DHT22;55949;52.590;7.330;2023-12-22T00:58:08;5.00;99.90
62998;DHT22;55949;52.590;7.330;2023-12-22T00:59:09;5.10;99.90
62998;DHT22;55949;52.590;7.330;2023-12-22T01:00:10;5.10;99.90
62998;DHT22;55949;52.590;7.330;2023-12-22T01:01:12;5.10;99.90
62998;DHT22;55949;52.590;7.330;2023-12-22T01:02:14;5.10;99.90
62998;DHT22;55949;52.590;7.330;2023-12-22T01:03:15;5.10;99.90
62998;DHT22;55949;52.590;7.330;2023-12-22T01:04:15;5.10;99.90
62998;DHT22;55949;52.590;7.330;2023-12-22T01:05:16;5.10;99.90
62998;DHT22;55949;52.590;7.330;2023-12-22T01:06:17;5.20;99.90
62998;DHT22;55949;52.590;7.330;2023-12-22T01:07:18;5.20;99.90
62998;DHT22;55949;52.590;7.330;2023-12-22T01:08:19;5.20;99.90
62998;DHT22;55949;52.590;7.330;2023-12-22T01:09:21;5.30;99.90
62998;DHT22;55949;52.590;7.330;2023-12-22T01:10:21;5.30;99.90
62998;DHT22;55949;52.590;7.330;2023-12-22T01:11:22;5.40;99.90
62998;DHT22;55949;52.590;7.330;2023-12-22T01:12:23;5.40;99.90
62998;DHT22;55949;52.590;7.330;2023-12-22T01:13:23;5.30;99.90
62998;DHT22;55949;52.590;7.330;2023-12-22T01:14:24;5.40;99.90
62998;DHT22;55949;52.590;7.330;2023-12-22T01:15:25;5.30;99.90
62998;DHT22;55949;52.590;7.330;2023-12-22T01:16:25;5.40;99.90
62998;DHT22;55949;52.590;7.330;2023-12-22T01:17:26;5.40;99.90
62998;DHT22;55949;52.590;7.330;2023-12-22T01:18:26;5.40;99.90
62998;DHT22;55949;52.590;7.330;2023-12-22T01:19:30;5.50;99.90
62998;DHT22;55949;52.590;7.330;2023-12-22T01:20:30;5.50;99.90
62998;DHT22;55949;52.590;7.330;2023-12-22T01:21:31;5.50;99.90
62998;DHT22;55949;52.590;7.330;2023-12-22T01:22:32;5.50;99.90
62998;DHT22;55949;52.590;7.330;2023-12-22T01:23:34;5.60;99.90
62998;DHT22;55949;52.590;7.330;2023-12-22T01:24:34;5.60;99.90
62998;DHT22;55949;52.590;7.330;2023-12-22T01:25:39;5.70;99.90
62998;DHT22;55949;52.590;7.330;2023-12-22T01:26:40;5.70;99.90
62998;DHT22;55949;52.590;7.330;2023-12-22T01:27:41;5.60;99.90
62998;DHT22;55949;52.590;7.330;2023-12-22T01:28:41;5.70;99.90
62998;DHT22;55949;52.590;7.330;2023-12-22T01:29:42;5.70;99.90
62998;DHT22;55949;52.590;7.330;2023-12-22T01:30:43;5.70;99.90
62998;DHT22;55949;52.590;7.330;2023-12-22T01:31:43;5.60;99.90
62998;DHT22;55949;52.590;7.330;2023-12-22T01:32:44;5.40;99.90
62998;DHT22;55949;52.590;7.330;2023-12-22T01:33:45;5.10;99.90
62998;DHT22;55949;52.590;7.330;2023-12-22T01:34:45;4.90;99.90
62998;DHT22;55949;52.590;7.330;2023-12-22T01:35:46;4.80;99.90
62998;DHT22;55949;52.590;7.330;2023-12-22T01:36:47;4.60;99.90
62998;DHT22;55949;52.590;7.330;2023-12-22T01:37:48;4.60;99.90
62998;DHT22;55949;52.590;7.330;2023-12-22T01:38:49;4.60;99.90
62998;DHT22;55949;52.590;7.330;2023-12-22T01:39:50;4.80;99.90
62998;DHT22;55949;52.590;7.330;2023-12-22T01:40:50;4.80;99.90
62998;DHT22;55949;52.590;7.330;2023-12-22T01:41:51;4.90;99.90
62998;DHT22;55949;52.590;7.330;2023-12-22T01:42:52;4.80;99.90
62998;DHT22;55949;52.590;7.330;2023-12-22T01:43:52;4.80;99.90
62998;DHT22;55949;52.590;7.330;2023-12-22T01:44:53;4.90;99.90
62998;DHT22;55949;52.590;7.330;2023-12-22T01:45:58;4.90;99.90
62998;DHT22;55949;52.590;7.330;2023-12-22T01:47:00;4.90;99.90
62998;DHT22;55949;52.590;7.330;2023-12-22T01:48:01;5.00;99.90
62998;DHT22;55949;52.590;7.330;2023-12-22T01:49:03;5.00;99.90
62998;DHT22;55949;52.590;7.330;2023-12-22T01:50:05;5.00;99.90
62998;DHT22;55949;52.590;7.330;2023-12-22T01:51:06;5.00;99.90
62998;DHT22;55949;52.590;7.330;2023-12-22T01:52:07;5.10;99.90
62998;DHT22;55949;52.590;7.330;2023-12-22T01:53:08;5.10;99.90
62998;DHT22;55949;52.590;7.330;2023-12-22T01:54:09;5.20;99.90
62998;DHT22;55949;52.590;7.330;2023-12-22T01:55:11;5.20;99.90
62998;DHT22;55949;52.590;7.330;2023-12-22T01:56:12;5.20;99.90
62998;DHT22;55949;52.590;7.330;2023-12-22T01:57:15;5.30;99.90
62998;DHT22;55949;52.590;7.330;2023-12-22T01:58:21;5.40;99.90
62998;DHT22;55949;52.590;7.330;2023-12-22T01:59:23;5.40;99.90
62998;DHT22;55949;52.590;7.330;2023-12-22T02:00:23;5.40;99.90
62998;DHT22;55949;52.590;7.330;2023-12-22T02:01:24;5.50;99.90
62998;DHT22;55949;52.590;7.330;2023-12-22T02:02:26;5.30;99.90
62998;DHT22;55949;52.590;7.330;2023-12-22T02:03:27;5.30;99.90
62998;DHT22;55949;52.590;7.330;2023-12-22T02:04:30;5.30;99.90
62998;DHT22;55949;52.590;7.330;2023-12-22T02:05:31;5.30;99.90
62998;DHT22;55949;52.590;7.330;2023-12-22T02:06:32;5.50;99.90
62998;DHT22;55949;52.590;7.330;2023-12-22T02:07:37;5.50;99.90
62998;DHT22;55949;52.590;7.330;2023-12-22T02:08:38;5.30;99.90
62998;DHT22;55949;52.590;7.330;2023-12-22T02:09:39;5.30;99.90
62998;DHT22;55949;52.590;7.330;2023-12-22T02:10:39;5.40;99.90
62998;DHT22;55949;52.590;7.330;2023-12-22T02:11:40;5.40;99.90
62998;DHT22;55949;52.590;7.330;2023-12-22T02:12:42;5.30;99.90
62998;DHT22;55949;52.590;7.330;2023-12-22T02:13:44;5.30;99.90
62998;DHT22;55949;52.590;7.330;2023-12-22T02:14:44;5.20;99.90
62998;DHT22;55949;52.590;7.330;2023-12-22T02:15:47;5.20;99.90
62998;DHT22;55949;52.590;7.330;2023-12-22T02:16:53;5.40;99.90
62998;DHT22;55949;52.590;7.330;2023-12-22T02:18:10;5.30;99.90
62998;DHT22;55949;52.590;7.330;2023-12-22T02:20:24;5.40;99.90
62998;DHT22;55949;52.590;7.330;2023-12-22T02:21:24;5.50;99.90
62998;DHT22;55949;52.590;7.330;2023-12-22T02:22:28;5.40;99.90
62998;DHT22;55949;52.590;7.330;2023-12-22T02:23:29;5.60;99.90
62998;DHT22;55949;52.590;7.330;2023-12-22T02:24:29;5.60;99.90
62998;DHT22;55949;52.590;7.330;2023-12-22T02:25:33;5.60;99.90
62998;DHT22;55949;52.590;7.330;2023-12-22T02:26:39;5.60;99.90
62998;DHT22;55949;52.590;7.330;2023-12-22T02:27:58;5.60;99.90
62998;DHT22;55949;52.590;7.330;2023-12-22T02:29:00;5.50;99.90
62998;DHT22;55949;52.590;7.330;2023-12-22T02:31:35;5.60;99.90
62998;DHT22;55949;52.590;7.330;2023-12-22T02:32:40;5.70;99.90
62998;DHT22;55949;52.590;7.330;2023-12-22T02:33:42;5.80;99.90
62998;DHT22;55949;52.590;7.330;2023-12-22T02:34:44;5.70;99.90
62998;DHT22;55949;52.590;7.330;2023-12-22T02:35:47;5.80;99.90
62998;DHT22;55949;52.590;7.330;2023-12-22T02:36:51;5.80;99.90
62998;DHT22;55949;52.590;7.330;2023-12-22T02:37:52;5.80;99.90
62998;DHT22;55949;52.590;7.330;2023-12-22T02:38:54;5.80;99.90
62998;DHT22;55949;52.590;7.330;2023-12-22T02:39:56;5.80;99.90
62998;DHT22;55949;52.590;7.330;2023-12-22T02:40:58;5.90;99.90
62998;DHT22;55949;52.590;7.330;2023-12-22T02:42:00;5.80;99.90
62998;DHT22;55949;52.590;7.330;2023-12-22T02:43:05;5.80;99.90
62998;DHT22;55949;52.590;7.330;2023-12-22T02:44:06;5.80;99.90
62998;DHT22;55949;52.590;7.330;2023-12-22T02:45:14;5.90;99.90
62998;DHT22;55949;52.590;7.330;2023-12-22T02:46:15;5.90;99.90
62998;DHT22;55949;52.590;7.330;2023-12-22T02:47:16;6.00;99.90
62998;DHT22;55949;52.590;7.330;2023-12-22T02:48:17;6.00;99.90
62998;DHT22;55949;52.590;7.330;2023-12-22T02:49:17;6.00;99.90
62998;DHT22;55949;52.590;7.330;2023-12-22T02:50:19;6.10;99.90
62998;DHT22;55949;52.590;7.330;2023-12-22T02:51:19;6.10;99.90
62998;DHT22;55949;52.590;7.330;2023-12-22T02:52:20;6.10;99.90
62998;DHT22;55949;52.590;7.330;2023-12-22T02:53:20;6.10;99.90
62998;DHT22;55949;52.590;7.330;2023-12-22T02:54:21;6.20;99.90
62998;DHT22;55949;52.590;7.330;2023-12-22T02:55:22;6.10;99.90
62998;DHT22;55949;52.590;7.330;2023-12-22T02:56:22;6.10;99.90
62998;DHT22;55949;52.590;7.330;2023-12-22T02:57:23;6.00;99.90
62998;DHT22;55949;52.590;7.330;2023-12-22T02:58:24;6.20;99.90
62998;DHT22;55949;52.590;7.330;2023-12-22T02:59:24;6.20;99.90
62998;DHT22;55949;52.590;7.330;2023-12-22T03:00:27;6.20;99.90
62998;DHT22;55949;52.590;7.330;2023-12-22T03:01:28;6.30;99.90
62998;DHT22;55949;52.590;7.330;2023-12-22T03:02:29;6.40;99.90
62998;DHT22;55949;52.590;7.330;2023-12-22T03:03:29;6.30;99.90
62998;DHT22;55949;52.590;7.330;2023-12-22T03:04:30;6.30;99.90
62998;DHT22;55949;52.590;7.330;2023-12-22T03:05:31;6.20;99.90
62998;DHT22;55949;52.590;7.330;2023-12-22T03:06:33;6.20;99.90
62998;DHT22;55949;52.590;7.330;2023-12-22T03:07:33;6.10;99.90
62998;DHT22;55949;52.590;7.330;2023-12-22T03:08:34;6.10;99.90
62998;DHT22;55949;52.590;7.330;2023-12-22T03:09:35;6.00;99.90
62998;DHT22;55949;52.590;7.330;2023-12-22T03:10:35;5.90;99.90
62998;DHT22;55949;52.590;7.330;2023-12-22T03:11:36;5.90;99.90
62998;DHT22;55949;52.590;7.330;2023-12-22T03:12:37;5.90;99.90
62998;DHT22;55949;52.590;7.330;2023-12-22T03:13:37;5.80;99.90
62998;DHT22;55949;52.590;7.330;2023-12-22T03:14:38;5.60;99.90
62998;DHT22;55949;52.590;7.330;2023-12-22T03:15:39;5.60;99.90
62998;DHT22;55949;52.590;7.330;2023-12-22T03:16:40;5.50;99.90
62998;DHT22;55949;52.590;7.330;2023-12-22T03:17:40;5.50;99.90
62998;DHT22;55949;52.590;7.330;2023-12-22T03:18:41;5.50;99.90
62998;DHT22;55949;52.590;7.330;2023-12-22T03:19:42;5.50;99.90
62998;DHT22;55949;52.590;7.330;2023-12-22T03:20:42;5.50;99.90
62998;DHT22;55949;52.590;7.330;2023-12-22T03:21:43;5.70;99.90
62998;DHT22;55949;52.590;7.330;2023-12-22T03:22:44;5.90;99.90
62998;DHT22;55949;52.590;7.330;2023-12-22T03:23:44;5.80;99.90
62998;DHT22;55949;52.590;7.330;2023-12-22T03:24:45;5.90;99.90
62998;DHT22;55949;52.590;7.330;2023-12-22T03:25:46;5.80;99.90
62998;DHT22;55949;52.590;7.330;2023-12-22T03:26:46;5.80;99.90
62998;DHT22;55949;52.590;7.330;2023-12-22T03:27:47;6.00;99.90
62998;DHT22;55949;52.590;7.330;2023-12-22T03:28:48;5.90;99.90
62998;DHT22;55949;52.590;7.330;2023-12-22T03:29:48;5.90;99.90
62998;DHT22;55949;52.590;7.330;2023-12-22T03:30:49;5.80;99.90
62998;DHT22;55949;52.590;7.330;2023-12-22T03:31:50;5.90;99.90
62998;DHT22;55949;52.590;7.330;2023-12-22T03:32:50;6.00;99.90
62998;DHT22;55949;52.590;7.330;2023-12-22T03:33:51;5.90;99.90
62998;DHT22;55949;52.590;7.330;2023-12-22T03:34:52;5.80;99.90
62998;DHT22;55949;52.590;7.330;2023-12-22T03:35:52;5.80;99.90
62998;DHT22;55949;52.590;7.330;2023-12-22T03:36:53;5.70;99.90
62998;DHT22;55949;52.590;7.330;2023-12-22T03:37:54;5.70;99.90
62998;DHT22;55949;52.590;7.330;2023-12-22T03:38:55;5.80;99.90
62998;DHT22;55949;52.590;7.330;2023-12-22T03:39:55;5.80;99.90
62998;DHT22;55949;52.590;7.330;2023-12-22T03:40:56;5.80;99.90
62998;DHT22;55949;52.590;7.330;2023-12-22T03:41:56;5.90;99.90
62998;DHT22;55949;52.590;7.330;2023-12-22T03:42:57;5.80;99.90
62998;DHT22;55949;52.590;7.330;2023-12-22T03:43:58;5.80;99.90
62998;DHT22;55949;52.590;7.330;2023-12-22T03:44:58;5.90;99.90
62998;DHT22;55949;52.590;7.330;2023-12-22T03:45:59;5.90;99.90
62998;DHT22;55949;52.590;7.330;2023-12-22T03:47:00;6.00;99.90
62998;DHT22;55949;52.590;7.330;2023-12-22T03:48:00;6.10;99.90
62998;DHT22;55949;52.590;7.330;2023-12-22T03:49:01;6.10;99.90
62998;DHT22;55949;52.590;7.330;2023-12-22T03:50:02;6.10;99.90
62998;DHT22;55949;52.590;7.330;2023-12-22T03:51:03;6.10;99.90
62998;DHT22;55949;52.590;7.330;2023-12-22T03:52:03;6.10;99.90
62998;DHT22;55949;52.590;7.330;2023-12-22T03:53:04;6.20;99.90
62998;DHT22;55949;52.590;7.330;2023-12-22T03:54:04;6.20;99.90
62998;DHT22;55949;52.590;7.330;2023-12-22T03:55:05;6.20;99.90
62998;DHT22;55949;52.590;7.330;2023-12-22T03:56:08;6.20;99.90
62998;DHT22;55949;52.590;7.330;2023-12-22T03:57:09;6.30;99.90
62998;DHT22;55949;52.590;7.330;2023-12-22T03:58:09;6.30;99.90
62998;DHT22;55949;52.590;7.330;2023-12-22T03:59:10;6.40;99.90
62998;DHT22;55949;52.590;7.330;2023-12-22T04:00:11;6.40;99.90
62998;DHT22;55949;52.590;7.330;2023-12-22T04:01:14;6.30;99.90
62998;DHT22;55949;52.590;7.330;2023-12-22T04:02:15;6.20;99.90
62998;DHT22;55949;52.590;7.330;2023-12-22T04:03:15;6.30;99.90
62998;DHT22;55949;52.590;7.330;2023-12-22T04:04:16;6.20;99.90
62998;DHT22;55949;52.590;7.330;2023-12-22T04:05:17;6.30;99.90
62998;DHT22;55949;52.590;7.330;2023-12-22T04:06:17;6.20;99.90
62998;DHT22;55949;52.590;7.330;2023-12-22T04:07:18;6.20;99.90
62998;DHT22;55949;52.590;7.330;2023-12-22T04:08:19;6.10;99.90
62998;DHT22;55949;52.590;7.330;2023-12-22T04:09:21;6.20;99.90
62998;DHT22;55949;52.590;7.330;2023-12-22T04:10:21;6.10;99.90
62998;DHT22;55949;52.590;7.330;2023-12-22T04:11:22;6.10;99.90
62998;DHT22;55949;52.590;7.330;2023-12-22T04:12:23;6.20;99.90
62998;DHT22;55949;52.590;7.330;2023-12-22T04:13:23;6.20;99.90
62998;DHT22;55949;52.590;7.330;2023-12-22T04:14:24;6.20;99.90
62998;DHT22;55949;52.590;7.330;2023-12-22T04:15:25;6.20;99.90
62998;DHT22;55949;52.590;7.330;2023-12-22T04:16:25;6.10;99.90
62998;DHT22;55949;52.590;7.330;2023-12-22T04:17:26;6.10;99.90
62998;DHT22;55949;52.590;7.330;2023-12-22T04:18:26;6.00;99.90
62998;DHT22;55949;52.590;7.330;2023-12-22T04:19:27;6.00;99.90
62998;DHT22;55949;52.590;7.330;2023-12-22T04:20:28;5.80;99.90
62998;DHT22;55949;52.590;7.330;2023-12-22T04:21:28;5.80;99.90
62998;DHT22;55949;52.590;7.330;2023-12-22T04:22:29;5.80;99.90
62998;DHT22;55949;52.590;7.330;2023-12-22T04:23:30;5.80;99.90
62998;DHT22;55949;52.590;7.330;2023-12-22T04:24:30;5.90;99.90
62998;DHT22;55949;52.590;7.330;2023-12-22T04:25:31;5.80;99.90
62998;DHT22;55949;52.590;7.330;2023-12-22T04:26:31;5.80;99.90
62998;DHT22;55949;52.590;7.330;2023-12-22T04:27:32;5.80;99.90
62998;DHT22;55949;52.590;7.330;2023-12-22T04:28:33;5.80;99.90
62998;DHT22;55949;52.590;7.330;2023-12-22T04:29:33;5.90;99.90
62998;DHT22;55949;52.590;7.330;2023-12-22T04:30:34;5.80;99.90
62998;DHT22;55949;52.590;7.330;2023-12-22T04:31:35;5.80;99.90
62998;DHT22;55949;52.590;7.330;2023-12-22T04:32:36;5.70;99.90
62998;DHT22;55949;52.590;7.330;2023-12-22T04:33:37;5.80;99.90
62998;DHT22;55949;52.590;7.330;2023-12-22T04:34:37;5.70;99.90
62998;DHT22;55949;52.590;7.330;2023-12-22T04:35:38;5.80;99.90
62998;DHT22;55949;52.590;7.330;2023-12-22T04:36:39;5.80;99.90
62998;DHT22;55949;52.590;7.330;2023-12-22T04:37:39;6.00;99.90
62998;DHT22;55949;52.590;7.330;2023-12-22T04:38:40;6.10;99.90
62998;DHT22;55949;52.590;7.330;2023-12-22T04:39:41;5.90;99.90
62998;DHT22;55949;52.590;7.330;2023-12-22T04:40:42;5.90;99.90
62998;DHT22;55949;52.590;7.330;2023-12-22T04:41:42;5.90;99.90
62998;DHT22;55949;52.590;7.330;2023-12-22T04:42:43;5.80;99.90
62998;DHT22;55949;52.590;7.330;2023-12-22T04:43:44;5.80;99.90
62998;DHT22;55949;52.590;7.330;2023-12-22T04:44:44;5.80;99.90
62998;DHT22;55949;52.590;7.330;2023-12-22T04:45:45;5.70;99.90
62998;DHT22;55949;52.590;7.330;2023-12-22T04:46:46;5.70;99.90
62998;DHT22;55949;52.590;7.330;2023-12-22T04:47:46;5.70;99.90
62998;DHT22;55949;52.590;7.330;2023-12-22T04:48:47;5.50;99.90
62998;DHT22;55949;52.590;7.330;2023-12-22T04:49:47;5.60;99.90
62998;DHT22;55949;52.590;7.330;2023-12-22T04:50:48;5.60;99.90
62998;DHT22;55949;52.590;7.330;2023-12-22T04:51:49;5.60;99.90
62998;DHT22;55949;52.590;7.330;2023-12-22T04:52:49;5.60;99.90
62998;DHT22;55949;52.590;7.330;2023-12-22T04:53:50;5.60;99.90
62998;DHT22;55949;52.590;7.330;2023-12-22T04:54:50;5.60;99.90
62998;DHT22;55949;52.590;7.330;2023-12-22T04:55:51;5.60;99.90
62998;DHT22;55949;52.590;7.330;2023-12-22T04:56:52;5.40;99.90
62998;DHT22;55949;52.590;7.330;2023-12-22T04:57:52;5.40;99.90
62998;DHT22;55949;52.590;7.330;2023-12-22T04:58:53;5.50;99.90
62998;DHT22;55949;52.590;7.330;2023-12-22T04:59:54;5.40;99.90
62998;DHT22;55949;52.590;7.330;2023-12-22T05:00:54;5.40;99.90
62998;DHT22;55949;52.590;7.330;2023-12-22T05:01:55;5.30;99.90
62998;DHT22;55949;52.590;7.330;2023-12-22T05:02:56;5.40;99.90
62998;DHT22;55949;52.590;7.330;2023-12-22T05:03:56;5.40;99.90
62998;DHT22;55949;52.590;7.330;2023-12-22T05:04:57;5.30;99.90
62998;DHT22;55949;52.590;7.330;2023-12-22T05:05:58;5.30;99.90
62998;DHT22;55949;52.590;7.330;2023-12-22T05:06:59;5.30;99.90
62998;DHT22;55949;52.590;7.330;2023-12-22T05:08:00;5.40;99.90
62998;DHT22;55949;52.590;7.330;2023-12-22T05:09:00;5.30;99.90
62998;DHT22;55949;52.590;7.330;2023-12-22T05:10:01;5.30;99.90
62998;DHT22;55949;52.590;7.330;2023-12-22T05:11:02;5.40;99.90
62998;DHT22;55949;52.590;7.330;2023-12-22T05:12:03;5.40;99.90
62998;DHT22;55949;52.590;7.330;2023-12-22T05:13:04;5.40;99.90
62998;DHT22;55949;52.590;7.330;2023-12-22T05:14:05;5.40;99.90
62998;DHT22;55949;52.590;7.330;2023-12-22T05:15:05;5.50;99.90
62998;DHT22;55949;52.590;7.330;2023-12-22T05:16:06;5.50;99.90
62998;DHT22;55949;52.590;7.330;2023-12-22T05:17:07;5.50;99.90
62998;DHT22;55949;52.590;7.330;2023-12-22T05:18:08;5.50;99.90
62998;DHT22;55949;52.590;7.330;2023-12-22T05:19:08;5.50;99.90
62998;DHT22;55949;52.590;7.330;2023-12-22T05:20:09;5.60;99.90
62998;DHT22;55949;52.590;7.330;2023-12-22T05:21:15;5.60;99.90
62998;DHT22;55949;52.590;7.330;2023-12-22T05:22:15;5.60;99.90
62998;DHT22;55949;52.590;7.330;2023-12-22T05:23:16;5.60;99.90
62998;DHT22;55949;52.590;7.330;2023-12-22T05:24:17;5.60;99.90
62998;DHT22;55949;52.590;7.330;2023-12-22T05:25:17;5.60;99.90
62998;DHT22;55949;52.590;7.330;2023-12-22T05:26:21;5.70;99.90
62998;DHT22;55949;52.590;7.330;2023-12-22T05:27:22;5.70;99.90
62998;DHT22;55949;52.590;7.330;2023-12-22T05:28:23;5.80;99.90
62998;DHT22;55949;52.590;7.330;2023-12-22T05:29:24;5.80;99.90
62998;DHT22;55949;52.590;7.330;2023-12-22T05:30:25;5.90;99.90
62998;DHT22;55949;52.590;7.330;2023-12-22T05:31:25;5.90;99.90
62998;DHT22;55949;52.590;7.330;2023-12-22T05:32:26;5.90;99.90
62998;DHT22;55949;52.590;7.330;2023-12-22T05:33:27;6.00;99.90
62998;DHT22;55949;52.590;7.330;2023-12-22T05:34:27;6.00;99.90
62998;DHT22;55949;52.590;7.330;2023-12-22T05:35:28;5.90;99.90
62998;DHT22;55949;52.590;7.330;2023-12-22T05:36:29;6.10;99.90
62998;DHT22;55949;52.590;7.330;2023-12-22T05:37:29;6.10;99.90
62998;DHT22;55949;52.590;7.330;2023-12-22T05:38:30;6.10;99.90
62998;DHT22;55949;52.590;7.330;2023-12-22T05:39:31;6.10;99.90
62998;DHT22;55949;52.590;7.330;2023-12-22T05:40:32;6.10;99.90
62998;DHT22;55949;52.590;7.330;2023-12-22T05:41:33;6.20;99.90
62998;DHT22;55949;52.590;7.330;2023-12-22T05:42:36;6.10;99.90
62998;DHT22;55949;52.590;7.330;2023-12-22T05:43:37;6.20;99.90
62998;DHT22;55949;52.590;7.330;2023-12-22T05:44:37;6.20;99.90
62998;DHT22;55949;52.590;7.330;2023-12-22T05:45:39;6.30;99.90
62998;DHT22;55949;52.590;7.330;2023-12-22T05:46:40;6.20;99.90
62998;DHT22;55949;52.590;7.330;2023-12-22T05:47:41;6.30;99.90
62998;DHT22;55949;52.590;7.330;2023-12-22T05:48:42;6.30;99.90
62998;DHT22;55949;52.590;7.330;2023-12-22T05:49:43;6.20;99.90
62998;DHT22;55949;52.590;7.330;2023-12-22T05:50:44;6.30;99.90
62998;DHT22;55949;52.590;7.330;2023-12-22T05:51:45;6.20;99.90
62998;DHT22;55949;52.590;7.330;2023-12-22T05:52:45;6.30;99.90
62998;DHT22;55949;52.590;7.330;2023-12-22T05:53:46;6.20;99.90
62998;DHT22;55949;52.590;7.330;2023-12-22T05:54:47;6.30;99.90
62998;DHT22;55949;52.590;7.330;2023-12-22T05:55:47;6.40;99.90
62998;DHT22;55949;52.590;7.330;2023-12-22T05:56:49;6.20;99.90
62998;DHT22;55949;52.590;7.330;2023-12-22T05:57:51;6.30;99.90
62998;DHT22;55949;52.590;7.330;2023-12-22T05:58:52;6.30;99.90
62998;DHT22;55949;52.590;7.330;2023-12-22T05:59:53;6.30;99.90
62998;DHT22;55949;52.590;7.330;2023-12-22T06:00:54;6.40;99.90
62998;DHT22;55949;52.590;7.330;2023-12-22T06:01:54;6.40;99.90
62998;DHT22;55949;52.590;7.330;2023-12-22T06:02:55;6.30;99.90
62998;DHT22;55949;52.590;7.330;2023-12-22T06:03:56;6.30;99.90
62998;DHT22;55949;52.590;7.330;2023-12-22T06:04:57;6.30;99.90
62998;DHT22;55949;52.590;7.330;2023-12-22T06:05:57;6.30;99.90
62998;DHT22;55949;52.590;7.330;2023-12-22T06:06:58;6.50;99.90
62998;DHT22;55949;52.590;7.330;2023-12-22T06:07:59;6.50;99.90
62998;DHT22;55949;52.590;7.330;2023-12-22T06:09:00;6.50;99.90
62998;DHT22;55949;52.590;7.330;2023-12-22T06:10:00;6.50;99.90
62998;DHT22;55949;52.590;7.330;2023-12-22T06:11:01;6.50;99.90
62998;DHT22;55949;52.590;7.330;2023-12-22T06:12:02;6.50;99.90
62998;DHT22;55949;52.590;7.330;2023-12-22T06:13:02;6.50;99.90
62998;DHT22;55949;52.590;7.330;2023-12-22T06:14:04;6.50;99.90
62998;DHT22;55949;52.590;7.330;2023-12-22T06:15:05;6.50;99.90
62998;DHT22;55949;52.590;7.330;2023-12-22T06:16:06;6.40;99.90
62998;DHT22;55949;52.590;7.330;2023-12-22T06:17:06;6.40;99.90
62998;DHT22;55949;52.590;7.330;2023-12-22T06:18:07;6.50;99.90
62998;DHT22;55949;52.590;7.330;2023-12-22T06:19:08;6.40;99.90
62998;DHT22;55949;52.590;7.330;2023-12-22T06:20:10;6.40;99.90
62998;DHT22;55949;52.590;7.330;2023-12-22T06:21:11;6.50;99.90
62998;DHT22;55949;52.590;7.330;2023-12-22T06:22:12;6.50;99.90
62998;DHT22;55949;52.590;7.330;2023-12-22T06:23:12;6.60;99.90
62998;DHT22;55949;52.590;7.330;2023-12-22T06:24:13;6.60;99.90
62998;DHT22;55949;52.590;7.330;2023-12-22T06:25:14;6.70;99.90
62998;DHT22;55949;52.590;7.330;2023-12-22T06:26:14;6.60;99.90
62998;DHT22;55949;52.590;7.330;2023-12-22T06:27:15;6.50;99.90
62998;DHT22;55949;52.590;7.330;2023-12-22T06:28:16;6.70;99.90
62998;DHT22;55949;52.590;7.330;2023-12-22T06:29:18;6.70;99.90
62998;DHT22;55949;52.590;7.330;2023-12-22T06:30:18;6.70;99.90
62998;DHT22;55949;52.590;7.330;2023-12-22T06:31:20;6.60;99.90
62998;DHT22;55949;52.590;7.330;2023-12-22T06:32:21;6.60;99.90
62998;DHT22;55949;52.590;7.330;2023-12-22T06:33:21;6.70;99.90
62998;DHT22;55949;52.590;7.330;2023-12-22T06:34:22;6.60;99.90